Whitebluff, Mississippi
Current Conditions -  °F | °C
As of 6:53 PM on Wednesday 26 Nov 2014 (Local Time) from KMCB Reporting Station
Clear Clear  
Wind Chill: 57°   Ceiling: Unl
Heat Index: 57°   Visibility: 10mi
Dew Point: 38°   Wind: 6mph
Humidity: 49%   Direction: 220°SW
Pressure: 30.16"   Gusts: NA
Location:  31.274°N, 89.9542°W
Report Text: KMCB 270053Z AUTO 22005KT 10SM CLR 14/03 A3016 RMK AO2 SLP214 T01390033
Loading
Personal Weather Stations






























Interactive Weather Map New forecast layout! Learn more

10-Day Weather Forecast

Advertisements
Track Severe Weather on mobile